Time;durP1;ratioP1;P1;durP2;ratioP2;P2;SDS_P1;SDS_P2;PMS_P1;PMS_P2;Temp;Humidity;BMP_temperature;BMP_pressure;BME280_temperature;BME280_humidity;BME280_pressure;Samples;Min_cycle;Max_cycle;Signal;HPM_P1;HPM_P2
2023/07/19 00:02:49;;;;;;;8.90;4.40;;;;;;;13.32;80.90;98728.17;135640;1274;22538;-82
2023/07/19 00:05:52;;;;;;;10.60;4.20;;;;;;;13.27;81.46;98729.22;135521;1274;22524;-81
2023/07/19 00:08:55;;;;;;;7.90;3.90;;;;;;;13.24;81.82;98727.83;135621;1274;22706;-81
2023/07/19 00:11:57;;;;;;;6.70;4.30;;;;;;;13.23;82.42;98719.44;135613;1274;22542;-80
2023/07/19 00:15:00;;;;;;;8.20;4.30;;;;;;;13.18;82.45;98714.71;135503;1274;26129;-78
2023/07/19 00:18:02;;;;;;;6.10;4.10;;;;;;;13.11;83.05;98714.34;135546;1274;22772;-79
2023/07/19 00:21:05;;;;;;;5.20;4.10;;;;;;;13.10;83.56;98709.64;135515;1275;22541;-79
2023/07/19 00:24:07;;;;;;;4.30;3.80;;;;;;;13.06;83.67;98707.02;135482;1274;22561;-79
2023/07/19 00:27:12;;;;;;;8.20;4.40;;;;;;;13.01;83.90;98697.92;135503;1274;24210;-81
2023/07/19 00:30:14;;;;;;;5.10;4.20;;;;;;;12.96;84.33;98697.37;135406;1275;22580;-80
2023/07/19 00:33:17;;;;;;;4.60;4.10;;;;;;;12.89;84.39;98697.02;135347;1274;22618;-81
2023/07/19 00:36:19;;;;;;;8.00;4.50;;;;;;;12.83;84.43;98693.36;135295;1274;24186;-80
2023/07/19 00:39:22;;;;;;;6.60;4.40;;;;;;;12.78;84.85;98688.46;135366;1268;22535;-76
2023/07/19 00:42:24;;;;;;;8.00;4.70;;;;;;;12.77;85.09;98683.92;135294;1274;23235;-80
2023/07/19 00:45:27;;;;;;;4.70;4.20;;;;;;;12.78;85.53;98677.45;135919;1274;22619;-80
2023/07/19 00:48:29;;;;;;;9.20;5.50;;;;;;;12.78;85.91;98677.29;135964;1274;22544;-81
2023/07/19 00:51:31;;;;;;;7.80;4.70;;;;;;;12.82;86.39;98670.48;135829;1274;22609;-81
2023/07/19 00:54:34;;;;;;;6.50;4.40;;;;;;;12.84;86.57;98654.41;136075;1275;25203;-80
2023/07/19 00:57:36;;;;;;;6.80;4.60;;;;;;;12.79;86.39;98644.81;135891;1275;22482;-80
2023/07/19 01:00:39;;;;;;;8.80;4.90;;;;;;;12.78;87.14;98639.75;136007;1274;25268;-80
2023/07/19 01:03:41;;;;;;;14.50;5.60;;;;;;;12.82;87.62;98631.36;135728;1274;24678;-80
2023/07/19 01:06:44;;;;;;;11.10;4.80;;;;;;;12.85;87.57;98628.40;135773;1275;22712;-81
2023/07/19 01:09:46;;;;;;;10.60;5.30;;;;;;;12.84;87.32;98629.09;135505;1274;24343;-81
2023/07/19 01:12:49;;;;;;;11.40;5.00;;;;;;;12.81;87.75;98624.20;135717;1274;22527;-81
2023/07/19 01:15:51;;;;;;;8.40;4.90;;;;;;;12.79;88.03;98621.05;135576;1274;23050;-81
2023/07/19 01:18:55;;;;;;;5.80;5.20;;;;;;;12.78;87.90;98623.85;135581;1274;22651;-79
2023/07/19 01:21:58;;;;;;;7.60;5.10;;;;;;;12.74;88.65;98620.71;135582;1274;24167;-81
2023/07/19 01:25:00;;;;;;;7.10;5.50;;;;;;;12.74;88.94;98619.14;135510;1274;22633;-80
2023/07/19 01:28:03;;;;;;;21.20;6.10;;;;;;;12.75;88.72;98623.34;135583;1274;25230;-81
2023/07/19 01:31:05;;;;;;;6.00;4.70;;;;;;;12.74;88.57;98618.98;135611;1274;22543;-82
2023/07/19 01:34:08;;;;;;;9.50;5.00;;;;;;;12.70;88.05;98619.84;135592;1274;25919;-82
2023/07/19 01:37:11;;;;;;;10.60;5.40;;;;;;;12.58;88.26;98613.03;135480;1274;24758;-81
2023/07/19 01:40:14;;;;;;;9.10;5.20;;;;;;;12.47;88.59;98607.45;135568;1274;22534;-80
2023/07/19 01:43:16;;;;;;;7.00;4.80;;;;;;;12.41;89.06;98610.24;135407;1274;22561;-79
2023/07/19 01:46:19;;;;;;;5.70;4.80;;;;;;;12.40;89.31;98611.98;135466;1274;22484;-79
2023/07/19 01:49:21;;;;;;;6.50;4.90;;;;;;;12.32;89.10;98606.21;135429;1274;25325;-79
2023/07/19 01:52:24;;;;;;;7.40;4.80;;;;;;;12.24;89.56;98603.60;135426;1274;22551;-79
2023/07/19 01:55:26;;;;;;;6.80;4.90;;;;;;;12.24;90.25;98600.10;135390;1274;22544;-79
2023/07/19 01:58:29;;;;;;;17.40;5.10;;;;;;;12.22;90.19;98599.23;135483;1274;22544;-79
2023/07/19 02:01:31;;;;;;;7.20;4.70;;;;;;;12.17;90.17;98603.92;135408;1274;22531;-79
2023/07/19 02:04:34;;;;;;;7.50;4.70;;;;;;;12.12;90.37;98600.23;135459;1275;22699;-79
2023/07/19 02:07:36;;;;;;;7.80;5.20;;;;;;;12.09;91.01;98599.70;135455;1274;22694;-79
2023/07/19 02:10:39;;;;;;;68.20;9.40;;;;;;;12.08;91.45;98602.48;135526;1274;22581;-80
2023/07/19 02:13:41;;;;;;;8.50;4.90;;;;;;;12.06;91.27;98604.21;135595;1272;22562;-81
2023/07/19 02:16:43;;;;;;;7.70;5.20;;;;;;;12.01;91.27;98607.52;135627;1274;22557;-82
2023/07/19 02:19:46;;;;;;;5.30;4.80;;;;;;;12.02;92.20;98606.48;135692;1275;22640;-81
2023/07/19 02:22:48;;;;;;;7.20;5.20;;;;;;;12.01;92.77;98605.26;135688;1274;25421;-83
2023/07/19 02:25:51;;;;;;;56.90;8.60;;;;;;;12.02;92.99;98601.25;135627;1275;22598;-82
2023/07/19 02:28:53;;;;;;;83.30;10.00;;;;;;;12.05;93.42;98601.44;135677;1274;22530;-83
2023/07/19 02:31:56;;;;;;;17.20;5.70;;;;;;;12.08;93.59;98601.79;135695;1275;22548;-81
2023/07/19 02:34:58;;;;;;;76.10;9.60;;;;;;;12.09;92.85;98601.79;135760;1274;22641;-80
2023/07/19 02:38:01;;;;;;;12.70;5.40;;;;;;;12.11;93.06;98609.30;135758;1272;22541;-82
2023/07/19 02:41:03;;;;;;;542.20;41.60;;;;;;;12.20;93.78;98619.80;135780;1274;22522;-80
2023/07/19 02:44:05;;;;;;;16.70;5.70;;;;;;;12.28;94.37;98622.79;135560;1274;22562;-79
2023/07/19 02:47:08;;;;;;;8.60;5.00;;;;;;;12.37;94.41;98618.96;135456;1274;22525;-81
2023/07/19 02:50:10;;;;;;;5.70;4.90;;;;;;;12.46;93.95;98619.32;135419;1274;22636;-79
2023/07/19 02:53:13;;;;;;;8.00;5.20;;;;;;;12.52;93.86;98622.11;135471;1274;22469;-80
2023/07/19 02:56:15;;;;;;;13.90;5.10;;;;;;;12.55;93.46;98624.38;136382;1274;22563;-80
2023/07/19 02:59:18;;;;;;;10.20;5.10;;;;;;;12.54;93.31;98626.83;136408;1275;22534;-80
2023/07/19 03:02:20;;;;;;;5.90;4.70;;;;;;;12.54;93.29;98628.92;136119;1275;22530;-79
2023/07/19 03:05:23;;;;;;;7.60;5.60;;;;;;;12.59;93.89;98631.71;135888;1275;25300;-80
2023/07/19 03:08:26;;;;;;;7.70;5.40;;;;;;;12.68;94.03;98632.58;135581;1274;25384;-82
2023/07/19 03:11:28;;;;;;;6.10;5.00;;;;;;;12.78;94.06;98628.05;135651;1271;25342;-79
2023/07/19 03:14:30;;;;;;;38.00;6.90;;;;;;;12.83;93.41;98616.16;135384;1274;22533;-81
2023/07/19 03:17:34;;;;;;;23.50;5.30;;;;;;;12.87;93.11;98620.70;135347;1275;25075;-80
2023/07/19 03:20:36;;;;;;;10.80;5.10;;;;;;;12.99;93.38;98628.56;135759;1275;24987;-81
2023/07/19 03:23:38;;;;;;;8.70;5.00;;;;;;;13.07;92.93;98627.52;135728;1259;22563;-80
2023/07/19 03:26:41;;;;;;;10.40;4.50;;;;;;;13.14;93.02;98626.46;135790;1274;22534;-81
2023/07/19 03:29:43;;;;;;;58.30;8.70;;;;;;;13.22;92.90;98624.21;135613;1274;22539;-80
2023/07/19 03:32:46;;;;;;;7.30;4.70;;;;;;;13.28;92.82;98614.41;135678;1275;22535;-78
2023/07/19 03:35:49;;;;;;;11.60;4.50;;;;;;;13.29;92.74;98611.09;135219;1265;24878;-79
2023/07/19 03:38:51;;;;;;;6.90;4.80;;;;;;;13.31;92.97;98604.96;135149;1251;22595;-79
2023/07/19 03:41:54;;;;;;;5.80;4.60;;;;;;;13.37;92.98;98603.02;135002;1274;24903;-79
2023/07/19 03:44:56;;;;;;;41.20;8.00;;;;;;;13.60;96.29;98598.91;134996;1272;26133;-77
2023/07/19 03:47:59;;;;;;;35.60;5.30;;;;;;;14.76;100.00;98591.89;135135;1274;22635;-79
2023/07/19 03:51:02;;;;;;;171.30;11.30;;;;;;;16.35;95.25;98589.54;135040;1251;24147;-80
2023/07/19 03:54:04;;;;;;;8.10;4.60;;;;;;;17.20;87.97;98591.30;135109;1274;23068;-80
2023/07/19 03:57:07;;;;;;;25.70;5.60;;;;;;;17.75;84.22;98589.73;135025;1259;22568;-80
2023/07/19 04:00:10;;;;;;;13.30;4.60;;;;;;;18.12;81.00;98584.36;136365;1274;24757;-80
2023/07/19 04:03:13;;;;;;;59.70;7.60;;;;;;;18.54;78.42;98582.19;136346;1274;23916;-80
2023/07/19 04:06:15;;;;;;;38.60;7.60;;;;;;;18.81;76.92;98579.42;136349;1275;22546;-81
2023/07/19 04:09:18;;;;;;;51.10;6.70;;;;;;;18.94;75.79;98577.14;136275;1274;22554;-86
2023/07/19 04:12:21;;;;;;;149.40;13.60;;;;;;;19.16;73.17;98580.98;136022;1274;24298;-81
2023/07/19 04:15:23;;;;;;;42.40;5.60;;;;;;;19.22;71.57;98582.95;136066;1274;22472;-81
2023/07/19 04:18:26;;;;;;;14.60;5.10;;;;;;;19.11;70.68;98581.48;136352;1275;22555;-80
2023/07/19 04:21:28;;;;;;;29.70;5.30;;;;;;;19.13;70.97;98577.38;136683;1251;22526;-80
2023/07/19 04:24:31;;;;;;;77.90;8.20;;;;;;;19.39;71.22;98575.42;136727;1274;22554;-82
2023/07/19 04:27:33;;;;;;;397.60;34.70;;;;;;;19.72;70.73;98569.02;136667;1274;22573;-77
2023/07/19 04:30:36;;;;;;;66.50;7.20;;;;;;;19.97;70.02;98560.20;135389;1275;22854;-77
2023/07/19 04:33:40;;;;;;;24.20;5.10;;;;;;;20.16;69.37;98559.79;135196;1274;22633;-82
2023/07/19 04:36:42;;;;;;;;;;;;;;;20.26;68.61;98554.67;136435;1274;22543;-81
2023/07/19 04:39:45;;;;;;;14.10;5.10;;;;;;;20.36;68.67;98555.98;136336;1274;25460;-82
2023/07/19 04:42:48;;;;;;;19.70;4.90;;;;;;;20.57;68.30;98555.46;136391;1264;22562;-82
2023/07/19 04:45:51;;;;;;;167.30;14.60;;;;;;;20.81;67.65;98556.45;136356;1275;22670;-80
2023/07/19 04:48:54;;;;;;;6.70;4.10;;;;;;;21.01;66.99;98555.42;134977;1274;22537;-80
2023/07/19 04:51:56;;;;;;;148.80;14.00;;;;;;;21.18;66.51;98558.91;136173;1274;22548;-82
2023/07/19 04:54:59;;;;;;;31.40;5.60;;;;;;;21.34;66.18;98559.96;136253;1275;22961;-83
2023/07/19 04:58:02;;;;;;;71.70;7.40;;;;;;;21.52;65.81;98559.81;136595;1274;22559;-82
2023/07/19 05:01:07;;;;;;;190.70;14.30;;;;;;;21.69;65.24;98557.26;136602;1274;23287;-78
2023/07/19 05:04:10;;;;;;;29.90;6.30;;;;;;;21.83;64.81;98556.55;134889;1274;22544;-79
2023/07/19 05:07:14;;;;;;;37.30;5.70;;;;;;;21.98;64.24;98566.27;134955;1274;25527;-80
2023/07/19 05:10:17;;;;;;;75.30;9.00;;;;;;;22.10;64.30;98569.20;136322;1274;22556;-80
2023/07/19 05:13:19;;;;;;;66.80;8.70;;;;;;;22.28;64.34;98564.23;135070;1274;22643;-79
2023/07/19 05:16:23;;;;;;;79.80;8.30;;;;;;;22.50;64.42;98559.98;134982;1274;25904;-80
2023/07/19 05:19:25;;;;;;;84.20;9.70;;;;;;;22.79;64.15;98563.23;135182;1275;22525;-80
2023/07/19 05:22:30;;;;;;;49.70;8.40;;;;;;;23.01;63.98;98567.83;135001;1274;22538;-81
2023/07/19 05:25:33;;;;;;;35.10;7.70;;;;;;;23.31;63.72;98565.80;136459;1274;22544;-82
2023/07/19 05:28:35;;;;;;;18.60;6.20;;;;;;;23.55;63.09;98567.98;136606;1274;22603;-81
2023/07/19 05:31:38;;;;;;;59.60;8.50;;;;;;;23.72;62.79;98565.43;136452;1271;22998;-81
2023/07/19 05:34:40;;;;;;;100.00;10.80;;;;;;;23.84;62.71;98565.92;136238;1274;24292;-82
2023/07/19 05:37:43;;;;;;;81.40;8.10;;;;;;;24.10;61.12;98568.09;136313;1274;22988;-82
2023/07/19 05:40:45;;;;;;;43.40;6.50;;;;;;;24.20;60.08;98561.22;135019;1274;22566;-84
2023/07/19 05:43:48;;;;;;;28.20;5.40;;;;;;;24.42;59.23;98560.41;136712;1275;22565;-82
2023/07/19 05:46:50;;;;;;;42.20;5.60;;;;;;;24.54;58.73;98560.38;136526;1275;22582;-80
2023/07/19 05:49:53;;;;;;;9.90;4.40;;;;;;;24.54;58.29;98559.27;136558;1274;22710;-81
2023/07/19 05:52:55;;;;;;;28.50;5.70;;;;;;;24.32;57.96;98553.02;136414;1271;22540;-81
2023/07/19 05:55:58;;;;;;;41.70;7.10;;;;;;;23.82;59.14;98553.09;136271;1275;22938;-82
2023/07/19 05:59:01;;;;;;;6.30;4.40;;;;;;;23.57;61.34;98551.91;136100;1274;22563;-79
2023/07/19 06:02:04;;;;;;;162.60;15.00;;;;;;;23.36;62.11;98551.18;136233;1274;22518;-80
2023/07/19 06:05:06;;;;;;;165.70;14.40;;;;;;;23.39;62.60;98548.05;135370;1274;22523;-80
2023/07/19 06:08:09;;;;;;;40.90;7.10;;;;;;;23.66;62.75;98544.75;136293;1275;22579;-81
2023/07/19 06:11:12;;;;;;;59.40;7.80;;;;;;;23.98;61.25;98546.25;136279;1275;25323;-83
2023/07/19 06:14:14;;;;;;;8.30;4.00;;;;;;;24.14;59.43;98537.17;136199;1271;22618;-81
2023/07/19 06:17:17;;;;;;;18.60;5.60;;;;;;;24.19;59.24;98534.25;135333;1275;25412;-82
2023/07/19 06:20:19;;;;;;;15.70;4.70;;;;;;;24.40;58.32;98532.38;136052;1274;26246;-83
2023/07/19 06:23:22;;;;;;;33.80;5.10;;;;;;;24.29;58.65;98527.02;136225;1274;23152;-82
2023/07/19 06:26:24;;;;;;;17.80;5.10;;;;;;;24.41;58.20;98525.77;136369;1274;25912;-80
2023/07/19 06:29:27;;;;;;;11.80;4.10;;;;;;;24.50;57.57;98522.11;135185;1274;22534;-83
2023/07/19 06:32:30;;;;;;;62.50;7.40;;;;;;;24.36;57.49;98525.84;136418;1275;22542;-82
2023/07/19 06:35:33;;;;;;;28.20;6.00;;;;;;;24.34;56.69;98523.95;136253;1268;22643;-82
2023/07/19 06:38:36;;;;;;;25.10;5.40;;;;;;;24.34;56.66;98520.05;136270;1275;22555;-81
2023/07/19 06:41:39;;;;;;;22.90;5.50;;;;;;;24.76;57.08;98522.06;136028;1275;22549;-81
2023/07/19 06:44:42;;;;;;;9.30;4.00;;;;;;;25.21;54.27;98513.69;136075;1274;21762;-83
2023/07/19 06:47:44;;;;;;;19.00;5.10;;;;;;;25.47;52.92;98514.98;136229;1274;22549;-83
2023/07/19 06:50:47;;;;;;;23.20;5.60;;;;;;;25.66;52.21;98516.48;136068;1275;22479;-81
2023/07/19 06:53:49;;;;;;;23.20;4.80;;;;;;;25.70;51.51;98512.88;136214;1274;22459;-81
2023/07/19 06:56:52;;;;;;;27.70;6.20;;;;;;;25.60;51.71;98506.45;135627;1275;22533;-82
2023/07/19 06:59:57;;;;;;;43.90;6.60;;;;;;;25.85;51.30;98504.05;136550;1275;22592;-84
2023/07/19 07:02:59;;;;;;;20.80;4.80;;;;;;;25.95;50.73;98505.24;136920;1274;22915;-83
2023/07/19 07:06:02;;;;;;;15.10;4.80;;;;;;;26.18;50.95;98505.43;136980;1275;22519;-81
2023/07/19 07:09:05;;;;;;;15.30;5.30;;;;;;;26.34;50.54;98508.78;137002;1256;22608;-82
2023/07/19 07:12:08;;;;;;;7.10;4.00;;;;;;;26.76;50.07;98505.27;136821;1274;22526;-83
2023/07/19 07:15:11;;;;;;;11.90;4.70;;;;;;;27.40;48.62;98507.52;136453;1274;22527;-82
2023/07/19 07:18:13;;;;;;;12.20;4.40;;;;;;;27.30;47.49;98510.64;136952;1275;22555;-82
2023/07/19 07:21:16;;;;;;;35.20;6.40;;;;;;;27.29;47.34;98503.90;136890;1274;22555;-82
2023/07/19 07:24:18;;;;;;;37.10;5.40;;;;;;;27.29;45.93;98496.78;136778;1275;23001;-84
2023/07/19 07:27:23;;;;;;;8.40;4.40;;;;;;;27.27;44.75;98496.53;136998;1275;22647;-83
2023/07/19 07:30:25;;;;;;;17.40;4.20;;;;;;;27.15;43.60;98493.66;137153;1275;22554;-82
2023/07/19 07:33:28;;;;;;;19.90;4.80;;;;;;;27.17;43.45;98490.38;137203;1275;22544;-82
2023/07/19 07:36:30;;;;;;;22.50;4.30;;;;;;;27.44;42.84;98481.20;136583;1275;24771;-84
2023/07/19 07:39:34;;;;;;;16.10;4.50;;;;;;;27.67;41.99;98477.79;136477;1275;21815;-82
2023/07/19 07:42:37;;;;;;;11.90;4.60;;;;;;;27.77;41.21;98471.64;136973;1275;22608;-82
2023/07/19 07:45:39;;;;;;;18.50;4.60;;;;;;;27.92;40.22;98472.09;137079;1263;22588;-84
2023/07/19 07:48:42;;;;;;;37.50;5.60;;;;;;;27.97;39.51;98473.39;137108;1275;22855;-81
2023/07/19 07:51:44;;;;;;;28.10;4.20;;;;;;;28.14;39.66;98467.13;136384;1271;22971;-86
2023/07/19 07:54:47;;;;;;;17.40;3.80;;;;;;;28.43;39.19;98466.47;136408;1274;21952;-81
2023/07/19 07:57:49;;;;;;;44.00;6.50;;;;;;;28.57;37.42;98466.04;136704;1275;22508;-83
2023/07/19 08:00:52;;;;;;;17.80;3.90;;;;;;;28.53;37.10;98469.52;136624;1274;22535;-79
2023/07/19 08:03:55;;;;;;;24.30;4.60;;;;;;;28.57;37.28;98463.36;136667;1274;22563;-84
2023/07/19 08:06:57;;;;;;;12.90;3.40;;;;;;;28.77;37.32;98456.84;135161;1275;22654;-82
2023/07/19 08:10:03;;;;;;;428.00;37.70;;;;;;;28.90;37.43;98452.52;136457;1275;23331;-83
2023/07/19 08:13:05;;;;;;;18.00;3.80;;;;;;;28.96;36.95;98450.90;136435;1275;22537;-80
2023/07/19 08:16:08;;;;;;;10.70;4.00;;;;;;;28.87;36.60;98447.92;136520;1274;22561;-85
2023/07/19 08:19:10;;;;;;;22.10;4.00;;;;;;;28.89;36.68;98441.34;136470;1275;22636;-84
2023/07/19 08:22:13;;;;;;;8.70;3.40;;;;;;;28.96;36.67;98438.73;136514;1275;25406;-79
2023/07/19 08:25:17;;;;;;;9.40;2.80;;;;;;;28.93;36.14;98436.21;135329;1274;25265;-78
2023/07/19 08:28:20;;;;;;;;;;;;;;;28.92;35.83;98439.14;135613;1275;22531;-84
2023/07/19 08:31:23;;;;;;;24.40;3.70;;;;;;;28.87;36.13;98436.44;136167;1275;24215;-79
2023/07/19 08:34:25;;;;;;;10.60;3.30;;;;;;;28.77;35.97;98439.29;135037;1275;22726;-81
2023/07/19 08:37:28;;;;;;;34.20;4.70;;;;;;;28.73;35.60;98434.36;134986;1275;22532;-82
2023/07/19 08:40:31;;;;;;;23.60;4.20;;;;;;;28.72;35.91;98436.03;136415;1274;22538;-79
2023/07/19 08:43:33;;;;;;;16.80;3.90;;;;;;;28.89;36.01;98433.64;135107;1274;23663;-81
2023/07/19 08:46:36;;;;;;;;;;;;;;;28.99;35.41;98427.73;136334;1274;22534;-81
2023/07/19 08:49:41;;;;;;;8.50;3.70;;;;;;;29.10;35.70;98421.98;136464;1274;23002;-81
2023/07/19 08:52:44;;;;;;;10.50;3.50;;;;;;;29.17;34.74;98420.39;136629;1272;22501;-82
2023/07/19 08:55:47;;;;;;;6.20;2.90;;;;;;;29.18;35.90;98414.92;136583;1275;22570;-84
2023/07/19 08:58:50;;;;;;;21.90;4.70;;;;;;;29.27;34.65;98413.09;136568;1274;22589;-81
2023/07/19 09:01:52;;;;;;;15.00;3.50;;;;;;;29.14;34.33;98406.06;136545;1271;23047;-80
2023/07/19 09:04:55;;;;;;;15.90;3.70;;;;;;;29.15;34.58;98402.62;135121;1275;23020;-82
2023/07/19 09:07:59;;;;;;;66.90;7.90;;;;;;;29.36;34.80;98392.69;136272;1274;22575;-82
2023/07/19 09:11:03;;;;;;;41.00;4.90;;;;;;;29.54;33.76;98390.01;136339;1274;23066;-81
2023/07/19 09:14:08;;;;;;;16.20;4.40;;;;;;;29.56;34.27;98383.61;136350;1275;22557;-82
2023/07/19 09:17:11;;;;;;;6.70;2.90;;;;;;;29.47;33.73;98379.56;136299;1274;23162;-82
2023/07/19 09:20:17;;;;;;;62.80;6.90;;;;;;;29.38;34.33;98378.02;136316;1275;22652;-82
2023/07/19 09:23:19;;;;;;;21.00;4.30;;;;;;;29.47;35.11;98382.07;136324;1274;22569;-82
2023/07/19 09:26:22;;;;;;;5.10;3.10;;;;;;;29.67;34.64;98382.80;136696;1275;22487;-83
2023/07/19 09:29:25;;;;;;;10.90;3.10;;;;;;;30.14;33.76;98379.15;136632;1274;22539;-80
2023/07/19 09:32:27;;;;;;;17.80;4.00;;;;;;;30.49;33.30;98374.70;135089;1274;22557;-81
2023/07/19 09:35:30;;;;;;;6.50;3.30;;;;;;;30.75;32.70;98372.35;136525;1274;22685;-81
2023/07/19 09:38:33;;;;;;;18.90;4.80;;;;;;;30.99;32.38;98370.05;135078;1274;22601;-82
2023/07/19 09:41:36;;;;;;;21.10;4.40;;;;;;;31.15;32.15;98369.55;136492;1272;22546;-82
2023/07/19 09:44:39;;;;;;;10.30;3.30;;;;;;;30.99;30.71;98366.83;136456;1275;22936;-83
2023/07/19 09:47:43;;;;;;;9.80;3.90;;;;;;;30.79;30.37;98366.13;135045;1274;22812;-82
2023/07/19 09:50:45;;;;;;;4.80;2.80;;;;;;;30.81;30.80;98368.41;136396;1275;22614;-82
2023/07/19 09:53:48;;;;;;;3.70;2.80;;;;;;;30.69;30.20;98368.85;136685;1274;22590;-81
2023/07/19 09:56:51;;;;;;;;;;;;;;;30.57;30.60;98364.91;134845;1274;22862;-82
2023/07/19 09:59:54;;;;;;;2.90;2.70;;;;;;;30.67;30.45;98359.09;136330;1274;22518;-82
2023/07/19 10:02:58;;;;;;;7.70;2.80;;;;;;;30.66;30.34;98356.71;134916;1274;23555;-81
2023/07/19 10:06:01;;;;;;;5.80;3.00;;;;;;;30.71;30.18;98356.81;136521;1272;23227;-82
2023/07/19 10:09:04;;;;;;;5.80;2.80;;;;;;;30.82;30.94;98348.98;136209;1274;22555;-83
2023/07/19 10:12:06;;;;;;;4.40;3.10;;;;;;;31.05;30.82;98348.92;136470;1274;22559;-83
2023/07/19 10:15:09;;;;;;;7.20;2.90;;;;;;;30.83;30.50;98344.23;136368;1274;22948;-82
2023/07/19 10:18:12;;;;;;;7.60;3.90;;;;;;;30.96;30.79;98336.55;136305;1275;25240;-84
2023/07/19 10:21:15;;;;;;;7.60;3.50;;;;;;;31.29;30.63;98327.79;136382;1275;25437;-82
2023/07/19 10:24:17;;;;;;;6.60;3.60;;;;;;;31.39;30.82;98322.54;136532;1274;22498;-82
2023/07/19 10:27:20;;;;;;;5.30;3.30;;;;;;;31.49;31.16;98321.02;135494;1274;22557;-83
2023/07/19 10:30:22;;;;;;;15.00;4.10;;;;;;;31.64;30.91;98317.25;136598;1274;23129;-84
2023/07/19 10:33:25;;;;;;;23.50;5.10;;;;;;;31.38;31.23;98314.55;136568;1274;22561;-81
2023/07/19 10:36:28;;;;;;;;;;;;;;;31.48;30.98;98315.68;134976;1274;25208;-82
2023/07/19 10:39:30;;;;;;;21.20;3.50;;;;;;;31.55;29.78;98310.98;136740;1274;24257;-80
2023/07/19 10:42:33;;;;;;;7.20;2.80;;;;;;;31.33;30.31;98309.54;135050;1274;22532;-82
2023/07/19 10:45:36;;;;;;;24.80;4.90;;;;;;;30.88;30.91;98313.65;135034;1274;22955;-83
2023/07/19 10:48:39;;;;;;;89.50;8.80;;;;;;;30.53;31.14;98311.52;135002;1257;22551;-83
2023/07/19 10:51:41;;;;;;;80.10;9.70;;;;;;;30.24;31.34;98309.13;136359;1275;22555;-86
2023/07/19 10:54:44;;;;;;;96.30;10.40;;;;;;;30.08;32.54;98306.02;135277;1274;22538;-83
2023/07/19 10:57:47;;;;;;;39.50;6.10;;;;;;;30.04;33.02;98299.86;136233;1275;25364;-84
2023/07/19 11:04:48;;;;;;;;;;;;;;;;;;;;;
2023/07/19 11:07:52;;;;;;;126.50;12.60;;;;;;;30.57;31.93;98293.41;135913;1278;22669;-83
2023/07/19 11:10:54;;;;;;;16.40;3.80;;;;;;;30.38;31.50;98289.70;135835;1278;22518;-83
2023/07/19 11:13:57;;;;;;;6.20;3.20;;;;;;;30.23;31.97;98293.57;136360;1278;22554;-80
2023/07/19 11:16:59;;;;;;;6.30;3.00;;;;;;;29.79;31.68;98292.57;136190;1278;22986;-83
2023/07/19 11:20:02;;;;;;;9.00;3.30;;;;;;;29.34;32.68;98289.06;136075;1278;22485;-81
2023/07/19 11:23:06;;;;;;;4.60;3.30;;;;;;;29.39;33.33;98288.20;136156;1278;22552;-83
2023/07/19 11:26:08;;;;;;;11.20;3.30;;;;;;;29.80;33.11;98281.55;136354;1278;22561;-84
2023/07/19 11:29:11;;;;;;;9.60;3.20;;;;;;;30.32;32.41;98279.01;136100;1277;232548;-83
2023/07/19 11:32:13;;;;;;;17.20;3.60;;;;;;;30.51;30.93;98278.98;136334;1278;22556;-84
2023/07/19 11:35:16;;;;;;;7.20;3.60;;;;;;;30.83;30.43;98266.64;136440;1273;22524;-81
2023/07/19 11:38:19;;;;;;;7.70;3.30;;;;;;;31.08;29.22;98257.93;136276;1278;22530;-83
2023/07/19 11:41:22;;;;;;;6.90;3.00;;;;;;;30.94;28.71;98254.98;136043;1278;23016;-82
2023/07/19 11:44:25;;;;;;;3.50;3.20;;;;;;;30.69;29.24;98249.96;136140;1278;22514;-83
2023/07/19 11:47:27;;;;;;;4.80;3.30;;;;;;;30.74;30.20;98251.19;136147;1278;22549;-84
2023/07/19 11:50:30;;;;;;;4.40;4.00;;;;;;;31.02;29.96;98246.55;136325;1278;22557;-83
2023/07/19 11:53:32;;;;;;;7.60;3.60;;;;;;;30.93;29.40;98246.38;136377;1278;23014;-82
2023/07/19 11:56:35;;;;;;;7.30;3.20;;;;;;;30.62;30.64;98244.26;136766;1274;22518;-81
2023/07/19 11:59:37;;;;;;;4.60;2.90;;;;;;;30.64;30.79;98243.74;136483;1275;22584;-82
2023/07/19 12:02:40;;;;;;;3.90;3.10;;;;;;;30.48;30.17;98244.04;136432;1275;22643;-82
2023/07/19 12:05:43;;;;;;;5.40;3.20;;;;;;;30.30;30.54;98242.23;136478;1275;22477;-83
2023/07/19 12:08:46;;;;;;;405.80;39.20;;;;;;;30.06;31.30;98237.23;136636;1274;22572;-83
2023/07/19 12:11:49;;;;;;;22.20;4.90;;;;;;;30.01;31.72;98235.16;136557;1274;22542;-83
2023/07/19 12:14:51;;;;;;;9.10;3.40;;;;;;;30.22;31.01;98235.30;136561;1274;22554;-82
2023/07/19 12:17:54;;;;;;;11.40;3.30;;;;;;;30.60;30.53;98231.07;136764;1275;23442;-81
2023/07/19 12:20:57;;;;;;;10.90;3.60;;;;;;;30.48;30.40;98229.17;136739;1275;22648;-82
2023/07/19 12:24:02;;;;;;;6.00;2.80;;;;;;;30.41;30.77;98222.66;136922;1267;22590;-81
2023/07/19 12:27:04;;;;;;;4.00;3.00;;;;;;;30.40;31.42;98219.19;136938;1275;23336;-82
2023/07/19 12:30:07;;;;;;;4.60;3.30;;;;;;;30.60;31.55;98217.06;136964;1274;22523;-83
2023/07/19 12:33:09;;;;;;;10.10;3.10;;;;;;;30.75;30.69;98214.40;136842;1275;23092;-83
2023/07/19 12:36:12;;;;;;;10.50;3.60;;;;;;;30.96;30.41;98211.81;136915;1275;23021;-81
2023/07/19 12:39:15;;;;;;;5.80;3.00;;;;;;;31.10;30.26;98209.86;136850;1273;22551;-84
2023/07/19 12:42:18;;;;;;;8.60;3.50;;;;;;;31.25;30.06;98199.11;136620;1275;22561;-80
2023/07/19 12:45:20;;;;;;;7.70;3.50;;;;;;;31.10;29.58;98202.41;136763;1275;22554;-83
2023/07/19 12:48:22;;;;;;;5.10;3.40;;;;;;;31.05;29.94;98200.30;136668;1274;22508;-84
2023/07/19 12:51:25;;;;;;;6.90;3.50;;;;;;;30.99;29.87;98206.92;136674;1275;23471;-81
2023/07/19 12:54:27;;;;;;;6.90;3.30;;;;;;;30.83;30.19;98194.39;136554;1275;22544;-84
2023/07/19 12:57:30;;;;;;;6.90;3.20;;;;;;;30.69;29.63;98193.90;136384;1275;22572;-84
2023/07/19 13:00:34;;;;;;;8.10;3.10;;;;;;;30.60;30.57;98184.20;136302;1264;22569;-83
2023/07/19 13:03:37;;;;;;;15.60;3.90;;;;;;;30.88;30.87;98179.09;136348;1275;22617;-80
2023/07/19 13:06:39;;;;;;;27.20;5.10;;;;;;;31.11;30.76;98180.13;135313;1275;23049;-83
2023/07/19 13:09:42;;;;;;;4.00;3.10;;;;;;;30.81;29.51;98180.40;136317;1275;22554;-83
2023/07/19 13:12:44;;;;;;;4.50;3.10;;;;;;;30.55;29.60;98180.30;136379;1273;22550;-84
2023/07/19 13:15:47;;;;;;;7.00;3.10;;;;;;;30.55;30.39;98170.84;136332;1275;24435;-83
2023/07/19 13:18:49;;;;;;;9.70;3.00;;;;;;;30.88;30.52;98163.64;136230;1274;22565;-83
2023/07/19 13:21:52;;;;;;;7.10;3.40;;;;;;;31.14;30.02;98159.05;136370;1275;22520;-83
2023/07/19 13:24:54;;;;;;;5.50;2.90;;;;;;;31.29;30.13;98156.16;136829;1274;22527;-82
2023/07/19 13:27:57;;;;;;;6.10;3.00;;;;;;;31.53;29.61;98148.52;137198;1275;22557;-82
2023/07/19 13:31:00;;;;;;;3.60;3.00;;;;;;;31.57;29.30;98150.40;137279;1275;22545;-82
2023/07/19 13:34:03;;;;;;;5.70;3.00;;;;;;;31.49;28.73;98153.08;137294;1274;22524;-83
2023/07/19 13:37:07;;;;;;;8.50;3.40;;;;;;;31.01;28.46;98146.93;137165;1274;22921;-80
2023/07/19 13:40:09;;;;;;;5.30;3.10;;;;;;;30.75;28.86;98139.19;137364;1275;22635;-81
2023/07/19 13:43:12;;;;;;;5.20;3.30;;;;;;;30.67;29.00;98137.13;137347;1275;22608;-81
2023/07/19 13:46:16;;;;;;;5.50;3.10;;;;;;;30.78;29.48;98126.55;137404;1274;22191;-82
2023/07/19 13:49:19;;;;;;;3.90;2.70;;;;;;;30.88;29.25;98123.59;137428;1274;22441;-81
2023/07/19 13:52:22;;;;;;;3.30;3.00;;;;;;;30.94;29.46;98121.66;137324;1274;22604;-81
2023/07/19 13:55:25;;;;;;;7.80;2.80;;;;;;;31.17;29.09;98117.60;137408;1274;22574;-81
2023/07/19 13:58:27;;;;;;;3.20;2.90;;;;;;;31.35;29.34;98118.30;137419;1274;22053;-81
2023/07/19 14:01:30;;;;;;;3.30;3.00;;;;;;;31.38;28.76;98114.06;137162;1274;23492;-84
2023/07/19 14:04:32;;;;;;;5.70;3.20;;;;;;;31.32;28.03;98117.26;136273;1275;22669;-82
2023/07/19 14:07:35;;;;;;;8.60;3.10;;;;;;;31.19;27.73;98114.42;136059;1275;22593;-84
2023/07/19 14:10:38;;;;;;;8.00;3.10;;;;;;;30.78;27.90;98111.80;136030;1274;22574;-83